createdAt,value
2018-08-19T00:02:24.440Z,98913.00
2018-08-19T00:05:09.860Z,98916.00
2018-08-19T00:07:39.660Z,98917.00
2018-08-19T00:10:09.383Z,98916.00
2018-08-19T00:12:47.232Z,98911.00
2018-08-19T00:15:16.900Z,98917.00
2018-08-19T00:17:46.480Z,98922.00
2018-08-19T00:20:16.279Z,98919.00
2018-08-19T00:22:46.879Z,98918.00
2018-08-19T00:25:44.899Z,98917.00
2018-08-19T00:28:16.159Z,98916.00
2018-08-19T00:30:46.280Z,98921.00
2018-08-19T00:33:15.820Z,98919.00
2018-08-19T00:35:45.380Z,98926.00
2018-08-19T00:38:16.100Z,98923.00
2018-08-19T00:40:45.852Z,98928.00
2018-08-19T00:43:15.786Z,98929.00
2018-08-19T00:45:45.641Z,98925.00
2018-08-19T00:48:15.320Z,98933.00
2018-08-19T00:50:44.976Z,98932.00
2018-08-19T00:53:14.662Z,98924.00
2018-08-19T00:55:49.620Z,98934.00
2018-08-19T00:58:21.141Z,98941.00
2018-08-19T01:00:50.922Z,98937.00
2018-08-19T01:03:20.684Z,98944.00
2018-08-19T01:05:50.220Z,98943.00
2018-08-19T01:08:19.760Z,98948.00
2018-08-19T01:10:49.563Z,98952.00
2018-08-19T01:13:19.300Z,98947.00
2018-08-19T01:15:48.860Z,98942.00
2018-08-19T01:18:18.416Z,98939.00
2018-08-19T01:20:48.341Z,98939.00
2018-08-19T01:23:17.882Z,98941.00
2018-08-19T01:25:48.220Z,98947.00
2018-08-19T01:28:18.061Z,98952.00
2018-08-19T01:30:47.937Z,98948.00
2018-08-19T01:33:17.400Z,98942.00
2018-08-19T01:35:46.960Z,98942.00
2018-08-19T01:38:16.421Z,98949.00
2018-08-19T01:40:45.981Z,98945.00
2018-08-19T01:43:15.712Z,98942.00
2018-08-19T01:45:45.220Z,98938.00
2018-08-19T01:48:14.680Z,98943.00
2018-08-19T01:50:44.280Z,98939.00
2018-08-19T01:53:13.740Z,98944.00
2018-08-19T01:55:43.460Z,98946.00
2018-08-19T01:58:13.092Z,98941.00
2018-08-19T02:00:42.901Z,98947.00
2018-08-19T02:03:12.500Z,98943.00
2018-08-19T02:05:42.183Z,98948.00
2018-08-19T02:08:11.738Z,98950.00
2018-08-19T02:10:41.380Z,98947.00
2018-08-19T02:13:10.980Z,98943.00
2018-08-19T02:15:40.540Z,98949.00
2018-08-19T02:18:10.140Z,98952.00
2018-08-19T02:20:41.555Z,98949.00
2018-08-19T02:23:12.440Z,98943.00
2018-08-19T02:25:45.062Z,98935.00
2018-08-19T02:28:19.180Z,98943.00
2018-08-19T02:30:54.042Z,98937.00
2018-08-19T02:33:34.541Z,98939.00
2018-08-19T02:36:05.920Z,98943.00
2018-08-19T02:38:37.260Z,98943.00
2018-08-19T02:41:07.440Z,98949.00
2018-08-19T02:43:52.160Z,98953.00
2018-08-19T02:46:21.720Z,98959.00
2018-08-19T02:48:52.253Z,98954.00
2018-08-19T02:51:21.799Z,98959.00
2018-08-19T02:53:52.001Z,98964.00
2018-08-19T02:56:21.564Z,98969.00
2018-08-19T02:58:51.340Z,98966.00
2018-08-19T03:01:20.923Z,98968.00
2018-08-19T03:03:50.523Z,98966.00
2018-08-19T03:06:20.100Z,98967.00
2018-08-19T03:08:55.940Z,98962.00
2018-08-19T03:11:25.520Z,98965.00
2018-08-19T03:13:55.640Z,98964.00
2018-08-19T03:16:25.180Z,98964.00
2018-08-19T03:18:55.081Z,98963.00
2018-08-19T03:21:24.840Z,98958.00
2018-08-19T03:23:54.457Z,98960.00
2018-08-19T03:26:24.180Z,98963.00
2018-08-19T03:28:53.680Z,98958.00
2018-08-19T03:31:23.439Z,98968.00
2018-08-19T03:33:53.021Z,98969.00
2018-08-19T03:36:22.440Z,98970.00
2018-08-19T03:38:53.561Z,98971.00
2018-08-19T03:41:23.246Z,98976.00
2018-08-19T03:43:58.143Z,98978.00
2018-08-19T03:46:28.500Z,98983.00
2018-08-19T03:48:57.941Z,98982.00
2018-08-19T03:51:27.740Z,98980.00
2018-08-19T03:53:57.640Z,98982.00
2018-08-19T03:56:27.920Z,98976.00
2018-08-19T03:58:58.720Z,98980.00
2018-08-19T04:01:44.379Z,98984.00
2018-08-19T04:04:16.561Z,98981.00
2018-08-19T04:06:46.437Z,98977.00
2018-08-19T04:09:15.902Z,98983.00
2018-08-19T04:11:55.812Z,98981.00
2018-08-19T04:14:29.879Z,98987.00
2018-08-19T04:17:00.579Z,98992.00
2018-08-19T04:19:30.520Z,98990.00
2018-08-19T04:22:04.783Z,98995.00
2018-08-19T04:24:35.140Z,98995.00
2018-08-19T04:27:09.244Z,99002.00
2018-08-19T04:29:39.521Z,99000.00
2018-08-19T04:32:24.460Z,99001.00
2018-08-19T04:34:54.177Z,99006.00
2018-08-19T04:37:23.680Z,99002.00
2018-08-19T04:39:53.160Z,99000.00
2018-08-19T04:42:22.613Z,99002.00
2018-08-19T04:44:52.382Z,99007.00
2018-08-19T04:47:33.001Z,99002.00
2018-08-19T04:50:02.579Z,99004.00
2018-08-19T04:52:33.780Z,99006.00
2018-08-19T04:55:03.440Z,99006.00
2018-08-19T04:57:32.881Z,99010.00
2018-08-19T05:00:02.422Z,99008.00
2018-08-19T05:02:32.252Z,99013.00
2018-08-19T05:05:01.900Z,99014.00
2018-08-19T05:07:31.900Z,99006.00
2018-08-19T05:10:01.637Z,99014.00
2018-08-19T05:12:31.180Z,99010.00
2018-08-19T05:15:00.819Z,99009.00
2018-08-19T05:17:30.381Z,99013.00
2018-08-19T05:20:20.125Z,99021.00
2018-08-19T05:22:49.641Z,99017.00
2018-08-19T05:25:19.200Z,99014.00
2018-08-19T05:27:57.040Z,99010.00
2018-08-19T05:30:26.597Z,99019.00
2018-08-19T05:33:02.140Z,99022.00
2018-08-19T05:35:33.203Z,99029.00
2018-08-19T05:38:03.629Z,99028.00
2018-08-19T05:40:33.360Z,99033.00
2018-08-19T05:43:02.920Z,99031.00
2018-08-19T05:45:33.760Z,99033.00
2018-08-19T05:48:10.740Z,99037.00
2018-08-19T05:50:40.562Z,99038.00
2018-08-19T05:53:10.060Z,99038.00
2018-08-19T05:55:39.679Z,99034.00
2018-08-19T05:58:09.323Z,99036.00
2018-08-19T06:00:46.904Z,99031.00
2018-08-19T06:03:16.521Z,99032.00
2018-08-19T06:05:46.313Z,99033.00
2018-08-19T06:08:16.371Z,99038.00
2018-08-19T06:10:45.941Z,99040.00
2018-08-19T06:13:15.512Z,99041.00
2018-08-19T06:15:45.176Z,99043.00
2018-08-19T06:18:14.791Z,99040.00
2018-08-19T06:20:44.436Z,99057.00
2018-08-19T06:23:14.072Z,99054.00
2018-08-19T06:25:43.891Z,99051.00
2018-08-19T06:28:13.711Z,99053.00
2018-08-19T06:30:43.251Z,99058.00
2018-08-19T06:33:12.931Z,99053.00
2018-08-19T06:35:42.551Z,99051.00
2018-08-19T06:38:12.151Z,99048.00
2018-08-19T06:40:41.611Z,99048.00
2018-08-19T06:43:11.369Z,99040.00
2018-08-19T06:45:40.731Z,99036.00
2018-08-19T06:48:10.754Z,99037.00
2018-08-19T06:50:41.133Z,99048.00
2018-08-19T06:53:15.372Z,99039.00
2018-08-19T06:55:44.911Z,99044.00
2018-08-19T06:58:15.026Z,99051.00
2018-08-19T07:00:44.709Z,99041.00
2018-08-19T07:03:14.278Z,99047.00
2018-08-19T07:05:44.608Z,99047.00
2018-08-19T07:08:14.144Z,99041.00
2018-08-19T07:10:43.648Z,99040.00
2018-08-19T07:13:14.429Z,99044.00
2018-08-19T07:15:44.551Z,99044.00
2018-08-19T07:18:15.432Z,99048.00
2018-08-19T07:20:45.368Z,99053.00
2018-08-19T07:23:14.911Z,99049.00
2018-08-19T07:25:45.288Z,99041.00
2018-08-19T07:28:16.289Z,99042.00
2018-08-19T07:30:45.930Z,99047.00
2018-08-19T07:33:15.742Z,99044.00
2018-08-19T07:35:45.250Z,99049.00
2018-08-19T07:38:14.820Z,99052.00
2018-08-19T07:40:44.208Z,99050.00
2018-08-19T07:43:13.768Z,99043.00
2018-08-19T07:45:43.432Z,99053.00
2018-08-19T07:48:13.108Z,99048.00
2018-08-19T07:50:43.409Z,99038.00
2018-08-19T07:53:13.792Z,99037.00
2018-08-19T07:55:43.470Z,99043.00
2018-08-19T07:58:13.568Z,99037.00
2018-08-19T08:00:43.168Z,99039.00
2018-08-19T08:03:12.708Z,99039.00
2018-08-19T08:05:47.111Z,99036.00
2018-08-19T08:08:16.708Z,99042.00
2018-08-19T08:10:46.494Z,99035.00
2018-08-19T08:13:16.469Z,99031.00
2018-08-19T08:15:51.288Z,99031.00
2018-08-19T08:18:21.028Z,99032.00
2018-08-19T08:20:55.740Z,99032.00
2018-08-19T08:23:26.945Z,99030.00
2018-08-19T08:25:56.531Z,99039.00
2018-08-19T08:28:26.375Z,99037.00
2018-08-19T08:30:56.088Z,99041.00
2018-08-19T08:33:25.634Z,99036.00
2018-08-19T08:35:57.608Z,99032.00
2018-08-19T08:38:27.328Z,99030.00
2018-08-19T08:40:57.249Z,99032.00
2018-08-19T08:43:26.811Z,99030.00
2018-08-19T08:46:27.729Z,99033.00
2018-08-19T08:48:57.167Z,99027.00
2018-08-19T08:51:26.788Z,99020.00
2018-08-19T08:53:58.148Z,99018.00
2018-08-19T08:56:28.016Z,99011.00
2018-08-19T08:58:58.785Z,99011.00
2018-08-19T09:01:28.369Z,99007.00
2018-08-19T09:03:58.128Z,99002.00
2018-08-19T09:06:27.884Z,99000.00
2018-08-19T09:08:57.929Z,99000.00
2018-08-19T09:11:28.139Z,98993.00
2018-08-19T09:13:57.876Z,98993.00
2018-08-19T09:16:27.689Z,98992.00
2018-08-19T09:18:57.373Z,98989.00
2018-08-19T09:21:27.100Z,98984.00
2018-08-19T09:23:56.721Z,98984.00
2018-08-19T09:26:26.302Z,98987.00
2018-08-19T09:28:56.000Z,98983.00
2018-08-19T09:31:25.742Z,98976.00
2018-08-19T09:33:55.200Z,98974.00
2018-08-19T09:36:24.774Z,98979.00
2018-08-19T09:38:54.579Z,98972.00
2018-08-19T09:41:24.222Z,98967.00
2018-08-19T09:43:53.785Z,98966.00
2018-08-19T09:46:23.410Z,98962.00
2018-08-19T09:48:52.989Z,98956.00
2018-08-19T09:51:22.910Z,98953.00
2018-08-19T09:53:52.584Z,98953.00
2018-08-19T09:56:27.378Z,98948.00
2018-08-19T09:59:02.215Z,98955.00
2018-08-19T10:01:37.078Z,98946.00
2018-08-19T10:04:12.187Z,98945.00
2018-08-19T10:06:42.007Z,98948.00
2018-08-19T10:09:11.627Z,98950.00
2018-08-19T10:11:41.974Z,98943.00
2018-08-19T10:14:11.753Z,98946.00
2018-08-19T10:16:44.098Z,98941.00
2018-08-19T10:19:14.819Z,98942.00
2018-08-19T10:21:45.133Z,98937.00
2018-08-19T10:24:24.598Z,98933.00
2018-08-19T10:26:54.374Z,98937.00
2018-08-19T10:29:24.174Z,98930.00
2018-08-19T10:32:01.816Z,98928.00
2018-08-19T10:34:34.041Z,98926.00
2018-08-19T10:37:04.338Z,98925.00
2018-08-19T10:39:33.832Z,98924.00
2018-08-19T10:42:35.292Z,98921.00
2018-08-19T10:45:25.233Z,98922.00
2018-08-19T10:47:54.809Z,98916.00
2018-08-19T10:50:29.362Z,98913.00
2018-08-19T10:52:59.202Z,98922.00
2018-08-19T10:55:28.922Z,98914.00
2018-08-19T10:57:58.743Z,98914.00
2018-08-19T11:00:30.281Z,98910.00
2018-08-19T11:03:09.981Z,98909.00
2018-08-19T11:05:41.661Z,98906.00
2018-08-19T11:08:11.679Z,98900.00
2018-08-19T11:10:41.406Z,98887.00
2018-08-19T11:13:11.063Z,98895.00
2018-08-19T11:15:46.774Z,98890.00
2018-08-19T11:18:36.162Z,98886.00
2018-08-19T11:21:09.524Z,98883.00
2018-08-19T11:23:42.508Z,98880.00
2018-08-19T11:26:12.718Z,98876.00
2018-08-19T11:28:49.407Z,98880.00
2018-08-19T11:31:26.532Z,98877.00
2018-08-19T11:34:03.575Z,98866.00
2018-08-19T11:36:38.938Z,98859.00
2018-08-19T11:39:14.059Z,98864.00
2018-08-19T11:41:43.832Z,98856.00
2018-08-19T11:44:16.112Z,98855.00
2018-08-19T11:46:45.935Z,98848.00
2018-08-19T11:49:18.180Z,98850.00
2018-08-19T11:51:54.741Z,98852.00
2018-08-19T11:54:25.039Z,98845.00
2018-08-19T11:57:04.447Z,98845.00
2018-08-19T11:59:43.716Z,98842.00
2018-08-19T12:02:18.226Z,98834.00
2018-08-19T12:04:47.652Z,98839.00
2018-08-19T12:07:17.718Z,98831.00
2018-08-19T12:09:54.301Z,98826.00
2018-08-19T12:12:54.478Z,98832.00
2018-08-19T12:15:24.215Z,98824.00
2018-08-19T12:17:53.724Z,98824.00
2018-08-19T12:20:38.627Z,98825.00
2018-08-19T12:23:09.712Z,98815.00
2018-08-19T12:25:39.176Z,98811.00
2018-08-19T12:28:08.588Z,98808.00
2018-08-19T12:30:38.151Z,98808.00
2018-08-19T12:33:22.064Z,98797.00
2018-08-19T12:35:54.407Z,98801.00
2018-08-19T12:38:23.818Z,98792.00
2018-08-19T12:40:53.332Z,98788.00
2018-08-19T12:43:22.772Z,98785.00
2018-08-19T12:45:52.210Z,98782.00
2018-08-19T12:48:21.721Z,98780.00
2018-08-19T12:50:56.726Z,98779.00
2018-08-19T12:53:26.224Z,98767.00
2018-08-19T12:55:56.131Z,98771.00
2018-08-19T12:58:25.706Z,98765.00
2018-08-19T13:00:55.306Z,98765.00
2018-08-19T13:03:28.299Z,98758.00
2018-08-19T13:06:04.135Z,98749.00
2018-08-19T13:08:33.842Z,98759.00
2018-08-19T13:11:06.419Z,98756.00
2018-08-19T13:13:36.100Z,98754.00
2018-08-19T13:16:05.620Z,98748.00
2018-08-19T13:18:39.654Z,98748.00
2018-08-19T13:21:14.060Z,98738.00
2018-08-19T13:23:43.680Z,98745.00
2018-08-19T13:26:13.283Z,98745.00
2018-08-19T13:28:48.143Z,98739.00
2018-08-19T13:31:22.499Z,98743.00
2018-08-19T13:33:52.360Z,98742.00
2018-08-19T13:36:21.960Z,98739.00
2018-08-19T13:38:51.409Z,98725.00
2018-08-19T13:41:21.080Z,98727.00
2018-08-19T13:43:50.699Z,98721.00
2018-08-19T13:46:20.320Z,98715.00
2018-08-19T13:48:49.860Z,98727.00
2018-08-19T13:51:19.700Z,98715.00
2018-08-19T13:53:49.260Z,98713.00
2018-08-19T13:59:12.615Z,98709.00
2018-08-19T14:01:43.216Z,98712.00
2018-08-19T14:04:12.878Z,98712.00
2018-08-19T14:06:43.687Z,98710.00
2018-08-19T14:09:14.125Z,98702.00
2018-08-19T14:11:43.808Z,98707.00
2018-08-19T14:14:13.312Z,98698.00
2018-08-19T14:16:42.991Z,98697.00
2018-08-19T14:19:12.851Z,98697.00
2018-08-19T14:21:42.577Z,98696.00
2018-08-19T14:24:12.064Z,98687.00
2018-08-19T14:26:41.572Z,98690.00
2018-08-19T14:29:11.177Z,98688.00
2018-08-19T14:31:40.703Z,98676.00
2018-08-19T14:34:10.293Z,98682.00
2018-08-19T14:36:39.832Z,98686.00
2018-08-19T14:39:09.277Z,98682.00
2018-08-19T14:41:39.087Z,98680.00
2018-08-19T14:44:08.674Z,98676.00
2018-08-19T14:46:38.204Z,98676.00
2018-08-19T14:49:07.951Z,98677.00
2018-08-19T14:52:08.227Z,98675.00
2018-08-19T14:54:37.969Z,98673.00
2018-08-19T14:57:07.673Z,98667.00
2018-08-19T14:59:37.207Z,98674.00
2018-08-19T15:02:06.915Z,98665.00
2018-08-19T15:04:36.692Z,98668.00
2018-08-19T15:07:09.261Z,98654.00
2018-08-19T15:09:38.938Z,98656.00
2018-08-19T15:12:16.470Z,98659.00
2018-08-19T15:14:46.274Z,98665.00
2018-08-19T15:17:15.931Z,98662.00
2018-08-19T15:19:50.252Z,98657.00
2018-08-19T15:22:20.054Z,98657.00
2018-08-19T15:24:50.117Z,98658.00
2018-08-19T15:27:19.766Z,98647.00
2018-08-19T15:29:52.178Z,98647.00
2018-08-19T15:32:24.308Z,98649.00
2018-08-19T15:34:54.104Z,98647.00
2018-08-19T15:37:23.728Z,98644.00
2018-08-19T15:39:53.324Z,98644.00
2018-08-19T15:42:22.974Z,98632.00
2018-08-19T15:44:52.534Z,98638.00
2018-08-19T15:47:22.155Z,98644.00
2018-08-19T15:50:09.394Z,98632.00
2018-08-19T15:52:39.174Z,98632.00
2018-08-19T15:55:09.083Z,98631.00
2018-08-19T15:57:38.831Z,98632.00
2018-08-19T16:00:09.683Z,98629.00
2018-08-19T16:02:39.704Z,98633.00
2018-08-19T16:05:17.223Z,98624.00
2018-08-19T16:07:47.203Z,98621.00
2018-08-19T16:10:17.292Z,98624.00
2018-08-19T16:12:49.609Z,98621.00
2018-08-19T16:15:25.152Z,98617.00
2018-08-19T16:17:56.030Z,98612.00
2018-08-19T16:20:25.889Z,98615.00
2018-08-19T16:22:55.409Z,98603.00
2018-08-19T16:25:25.050Z,98602.00
2018-08-19T16:27:54.590Z,98598.00
2018-08-19T16:30:24.310Z,98601.00
2018-08-19T16:32:54.070Z,98599.00
2018-08-19T16:35:24.383Z,98604.00
2018-08-19T16:37:53.929Z,98602.00
2018-08-19T16:40:23.445Z,98603.00
2018-08-19T16:42:53.109Z,98609.00
2018-08-19T16:45:22.889Z,98606.00
2018-08-19T16:47:52.350Z,98607.00
2018-08-19T16:50:22.162Z,98603.00
2018-08-19T16:52:51.697Z,98600.00
2018-08-19T16:55:21.229Z,98597.00
2018-08-19T16:57:50.745Z,98596.00
2018-08-19T17:00:20.317Z,98593.00
2018-08-19T17:02:50.013Z,98601.00
2018-08-19T17:05:32.455Z,98598.00
2018-08-19T17:08:02.073Z,98601.00
2018-08-19T17:10:31.714Z,98597.00
2018-08-19T17:13:01.636Z,98602.00
2018-08-19T17:15:32.211Z,98592.00
2018-08-19T17:18:01.918Z,98602.00
2018-08-19T17:20:31.377Z,98595.00
2018-08-19T17:23:01.150Z,98592.00
2018-08-19T17:25:30.622Z,98587.00
2018-08-19T17:28:10.107Z,98586.00
2018-08-19T17:30:39.816Z,98586.00
2018-08-19T17:33:10.097Z,98587.00
2018-08-19T17:35:42.551Z,98584.00
2018-08-19T17:38:12.435Z,98591.00
2018-08-19T17:40:42.055Z,98588.00
2018-08-19T17:43:11.717Z,98595.00
2018-08-19T17:45:41.256Z,98591.00
2018-08-19T17:48:11.076Z,98588.00
2018-08-19T17:50:40.699Z,98588.00
2018-08-19T17:53:10.622Z,98588.00
2018-08-19T17:55:40.420Z,98593.00
2018-08-19T17:58:10.344Z,98597.00
2018-08-19T18:00:39.924Z,98600.00
2018-08-19T18:03:09.606Z,98594.00
2018-08-19T18:05:39.066Z,98596.00
2018-08-19T18:08:08.631Z,98593.00
2018-08-19T18:10:39.639Z,98598.00
2018-08-19T18:13:09.245Z,98601.00
2018-08-19T18:15:38.613Z,98603.00
2018-08-19T18:18:08.205Z,98610.00
2018-08-19T18:20:39.507Z,98607.00
2018-08-19T18:23:15.423Z,98608.00
2018-08-19T18:25:48.966Z,98611.00
2018-08-19T18:28:23.306Z,98617.00
2018-08-19T18:31:09.265Z,98609.00
2018-08-19T18:33:51.340Z,98619.00
2018-08-19T18:36:21.906Z,98622.00
2018-08-19T18:38:51.344Z,98620.00
2018-08-19T18:41:40.485Z,98622.00
2018-08-19T18:44:11.205Z,98627.00
2018-08-19T18:46:41.167Z,98626.00
2018-08-19T18:49:12.813Z,98619.00
2018-08-19T18:51:45.185Z,98628.00
2018-08-19T18:54:21.999Z,98632.00
2018-08-19T18:56:51.645Z,98629.00
2018-08-19T18:59:21.227Z,98637.00
2018-08-19T19:01:51.039Z,98629.00
2018-08-19T19:04:20.728Z,98634.00
2018-08-19T19:06:50.225Z,98634.00
2018-08-19T19:09:19.730Z,98636.00
2018-08-19T19:11:51.425Z,98646.00
2018-08-19T19:14:21.839Z,98638.00
2018-08-19T19:16:53.819Z,98641.00
2018-08-19T19:19:23.517Z,98636.00
2018-08-19T19:21:58.338Z,98629.00
2018-08-19T19:24:33.400Z,98636.00
2018-08-19T19:27:03.019Z,98627.00
2018-08-19T19:29:32.790Z,98633.00
2018-08-19T19:32:13.752Z,98634.00
2018-08-19T19:34:43.250Z,98641.00
2018-08-19T19:37:12.930Z,98650.00
2018-08-19T19:39:42.588Z,98637.00
2018-08-19T19:42:12.710Z,98644.00
2018-08-19T19:44:42.277Z,98644.00
2018-08-19T19:47:11.771Z,98646.00
2018-08-19T19:49:47.791Z,98650.00
2018-08-19T19:52:17.331Z,98647.00
2018-08-19T19:54:46.970Z,98650.00
2018-08-19T19:57:16.772Z,98646.00
2018-08-19T19:59:46.370Z,98647.00
2018-08-19T20:02:33.421Z,98646.00
2018-08-19T20:05:11.011Z,98654.00
2018-08-19T20:07:40.731Z,98644.00
2018-08-19T20:10:19.511Z,98644.00
2018-08-19T20:12:49.051Z,98654.00
2018-08-19T20:15:18.609Z,98649.00
2018-08-19T20:17:48.290Z,98653.00
2018-08-19T20:20:17.950Z,98647.00
2018-08-19T20:22:47.590Z,98648.00
2018-08-19T20:25:17.191Z,98643.00
2018-08-19T20:27:48.284Z,98644.00
2018-08-19T20:30:18.084Z,98650.00
2018-08-19T20:32:47.702Z,98655.00
2018-08-19T20:35:17.391Z,98657.00
2018-08-19T20:37:47.084Z,98656.00
2018-08-19T20:40:16.730Z,98656.00
2018-08-19T20:42:46.431Z,98663.00
2018-08-19T20:45:16.013Z,98661.00
2018-08-19T20:47:45.591Z,98666.00
2018-08-19T20:50:16.351Z,98669.00
2018-08-19T20:52:46.971Z,98664.00
2018-08-19T20:55:16.693Z,98676.00
2018-08-19T20:57:46.291Z,98676.00
2018-08-19T21:00:16.071Z,98673.00
2018-08-19T21:02:45.711Z,98670.00
2018-08-19T21:05:15.311Z,98676.00
2018-08-19T21:07:45.748Z,98678.00
2018-08-19T21:10:15.523Z,98681.00
2018-08-19T21:12:45.328Z,98684.00
2018-08-19T21:15:21.648Z,98681.00
2018-08-19T21:17:51.167Z,98684.00
2018-08-19T21:20:21.078Z,98684.00
2018-08-19T21:22:50.707Z,98687.00
2018-08-19T21:25:20.546Z,98686.00
2018-08-19T21:27:50.227Z,98684.00
2018-08-19T21:30:20.076Z,98687.00
2018-08-19T21:32:49.626Z,98685.00
2018-08-19T21:35:19.166Z,98691.00
2018-08-19T21:37:48.806Z,98694.00
2018-08-19T21:40:27.232Z,98689.00
2018-08-19T21:42:57.766Z,98696.00
2018-08-19T21:45:27.326Z,98699.00
2018-08-19T21:47:56.853Z,98701.00
2018-08-19T21:50:26.407Z,98703.00
2018-08-19T21:53:06.287Z,98700.00
2018-08-19T21:55:39.206Z,98698.00
2018-08-19T21:58:09.248Z,98706.00
2018-08-19T22:00:43.668Z,98711.00
2018-08-19T22:03:21.148Z,98702.00
2018-08-19T22:05:51.948Z,98709.00
2018-08-19T22:08:23.209Z,98705.00
2018-08-19T22:10:52.928Z,98710.00
2018-08-19T22:13:22.648Z,98707.00
2018-08-19T22:15:52.208Z,98707.00
2018-08-19T22:18:23.148Z,98710.00
2018-08-19T22:21:06.447Z,98712.00
2018-08-19T22:23:40.549Z,98711.00
2018-08-19T22:26:11.008Z,98702.00
2018-08-19T22:28:40.773Z,98709.00
2018-08-19T22:31:25.870Z,98706.00
2018-08-19T22:33:56.727Z,98707.00
2018-08-19T22:36:26.580Z,98705.00
2018-08-19T22:38:56.879Z,98702.00
2018-08-19T22:41:31.010Z,98706.00
2018-08-19T22:44:00.505Z,98697.00
2018-08-19T22:46:30.061Z,98700.00
2018-08-19T22:49:00.770Z,98696.00
2018-08-19T22:51:32.447Z,98701.00
2018-08-19T22:54:02.148Z,98694.00
2018-08-19T22:56:31.984Z,98690.00
2018-08-19T22:59:01.908Z,98692.00
2018-08-19T23:01:36.948Z,98697.00
2018-08-19T23:04:06.648Z,98693.00
2018-08-19T23:06:36.247Z,98692.00
2018-08-19T23:09:07.327Z,98695.00
2018-08-19T23:11:42.488Z,98699.00
2018-08-19T23:14:28.347Z,98689.00
2018-08-19T23:16:57.907Z,98686.00
2018-08-19T23:19:27.467Z,98692.00
2018-08-19T23:21:57.211Z,98694.00
2018-08-19T23:24:26.868Z,98691.00
2018-08-19T23:26:56.488Z,98685.00
2018-08-19T23:29:26.568Z,98684.00
2018-08-19T23:31:55.942Z,98684.00
2018-08-19T23:34:25.510Z,98685.00
2018-08-19T23:36:54.961Z,98681.00
2018-08-19T23:39:24.508Z,98684.00
2018-08-19T23:41:54.147Z,98694.00
2018-08-19T23:44:23.668Z,98691.00
2018-08-19T23:46:53.607Z,98688.00
2018-08-19T23:49:23.368Z,98689.00
2018-08-19T23:51:52.988Z,98684.00
2018-08-19T23:54:22.452Z,98681.00
2018-08-19T23:56:52.048Z,98680.00
2018-08-19T23:59:27.028Z,98671.00
